createdAt,value
2022-09-21T00:01:07.578Z,12.00
2022-09-21T00:03:35.668Z,12.00
2022-09-21T00:06:06.154Z,12.00
2022-09-21T00:08:34.321Z,12.00
2022-09-21T00:11:03.395Z,11.90
2022-09-21T00:13:33.381Z,11.90
2022-09-21T00:16:01.464Z,11.90
2022-09-21T00:18:29.719Z,11.90
2022-09-21T00:20:57.517Z,11.90
2022-09-21T00:23:26.965Z,11.90
2022-09-21T00:26:04.429Z,11.90
2022-09-21T00:28:32.249Z,11.80
2022-09-21T00:31:03.373Z,11.80
2022-09-21T00:33:31.329Z,11.80
2022-09-21T00:36:04.796Z,11.80
2022-09-21T00:38:35.111Z,11.80
2022-09-21T00:41:03.508Z,11.80
2022-09-21T00:43:34.371Z,11.70
2022-09-21T00:46:06.023Z,11.70
2022-09-21T00:48:34.849Z,11.70
2022-09-21T00:51:05.992Z,11.70
2022-09-21T00:53:35.610Z,11.70
2022-09-21T00:56:05.766Z,11.70
2022-09-21T00:58:38.098Z,11.70
2022-09-21T01:01:06.162Z,11.60
2022-09-21T01:03:34.495Z,11.60
2022-09-21T01:06:02.357Z,11.60
2022-09-21T01:08:31.031Z,11.60
2022-09-21T01:11:27.702Z,11.50
2022-09-21T01:14:16.163Z,11.50
2022-09-21T01:16:53.186Z,11.50
2022-09-21T01:19:39.093Z,11.50
2022-09-21T01:22:15.065Z,11.40
2022-09-21T01:24:55.258Z,11.40
2022-09-21T01:27:50.412Z,11.40
2022-09-21T01:30:22.258Z,11.40
2022-09-21T01:32:56.700Z,11.40
2022-09-21T01:35:29.397Z,11.40
2022-09-21T01:38:00.432Z,11.40
2022-09-21T01:40:35.590Z,11.40
2022-09-21T01:43:06.613Z,11.30
2022-09-21T01:45:40.204Z,11.30
2022-09-21T01:48:09.207Z,11.30
2022-09-21T01:50:42.397Z,11.30
2022-09-21T01:53:16.479Z,11.30
2022-09-21T01:55:49.896Z,11.30
2022-09-21T01:58:21.774Z,11.20
2022-09-21T02:00:55.639Z,11.20
2022-09-21T02:03:28.332Z,11.20
2022-09-21T02:05:58.196Z,11.20
2022-09-21T02:08:27.704Z,11.20
2022-09-21T02:10:56.788Z,11.20
2022-09-21T02:13:27.576Z,11.20
2022-09-21T02:16:12.454Z,11.10
2022-09-21T02:18:54.932Z,11.10
2022-09-21T02:21:29.649Z,11.10
2022-09-21T02:24:09.500Z,11.00
2022-09-21T02:26:44.737Z,11.00
2022-09-21T02:29:21.285Z,11.00
2022-09-21T02:31:56.387Z,11.00
2022-09-21T02:34:33.307Z,10.90
2022-09-21T02:37:08.401Z,10.90
2022-09-21T02:39:43.948Z,10.90
2022-09-21T02:42:16.347Z,10.90
2022-09-21T02:44:48.745Z,10.90
2022-09-21T02:47:23.214Z,10.90
2022-09-21T02:49:54.990Z,10.90
2022-09-21T02:52:23.362Z,10.90
2022-09-21T02:54:54.349Z,10.90
2022-09-21T02:57:24.520Z,10.90
2022-09-21T02:59:53.275Z,10.90
2022-09-21T03:02:22.407Z,10.90
2022-09-21T03:04:50.565Z,10.90
2022-09-21T03:07:18.989Z,10.90
2022-09-21T03:09:46.806Z,10.90
2022-09-21T03:12:14.689Z,10.80
2022-09-21T03:14:42.824Z,10.80
2022-09-21T03:17:10.658Z,10.80
2022-09-21T03:19:40.617Z,10.80
2022-09-21T03:22:08.403Z,10.80
2022-09-21T03:24:48.020Z,10.70
2022-09-21T03:27:16.819Z,10.70
2022-09-21T03:29:44.832Z,10.70
2022-09-21T03:32:13.757Z,10.80
2022-09-21T03:34:43.171Z,10.70
2022-09-21T03:37:11.709Z,10.70
2022-09-21T03:39:39.518Z,10.70
2022-09-21T03:42:09.078Z,10.70
2022-09-21T03:44:38.147Z,10.70
2022-09-21T03:47:06.654Z,10.60
2022-09-21T03:49:35.013Z,10.60
2022-09-21T03:52:04.748Z,10.60
2022-09-21T03:54:32.593Z,10.60
2022-09-21T03:57:00.416Z,10.70
2022-09-21T03:59:28.307Z,10.70
2022-09-21T04:01:56.100Z,10.70
2022-09-21T04:04:23.997Z,10.60
2022-09-21T04:06:51.954Z,10.60
2022-09-21T04:09:21.105Z,10.60
2022-09-21T04:11:49.148Z,10.60
2022-09-21T04:14:17.594Z,10.60
2022-09-21T04:16:45.408Z,10.70
2022-09-21T04:19:13.492Z,10.70
2022-09-21T04:21:41.318Z,10.60
2022-09-21T04:24:09.171Z,10.60
2022-09-21T04:26:39.624Z,10.60
2022-09-21T04:29:07.516Z,10.60
2022-09-21T04:31:35.460Z,10.60
2022-09-21T04:34:03.265Z,10.60
2022-09-21T04:36:36.423Z,10.50
2022-09-21T04:39:05.611Z,10.50
2022-09-21T04:41:34.124Z,10.40
2022-09-21T04:44:03.648Z,10.40
2022-09-21T04:46:31.614Z,10.40
2022-09-21T04:48:59.530Z,10.40
2022-09-21T04:51:27.454Z,10.30
2022-09-21T04:53:55.291Z,10.30
2022-09-21T04:56:23.125Z,10.30
2022-09-21T04:58:50.994Z,10.30
2022-09-21T05:01:20.260Z,10.30
2022-09-21T05:03:48.206Z,10.20
2022-09-21T05:06:16.109Z,10.30
2022-09-21T05:09:01.360Z,10.30
2022-09-21T05:11:29.206Z,10.30
2022-09-21T05:13:57.092Z,10.30
2022-09-21T05:16:26.398Z,10.30
2022-09-21T05:18:55.944Z,10.20
2022-09-21T05:21:24.129Z,10.20
2022-09-21T05:23:52.009Z,10.20
2022-09-21T05:26:20.112Z,10.20
2022-09-21T05:28:48.579Z,10.20
2022-09-21T05:31:42.134Z,10.10
2022-09-21T05:34:39.309Z,10.10
2022-09-21T05:37:15.123Z,10.10
2022-09-21T05:39:43.544Z,10.10
2022-09-21T05:42:12.621Z,10.10
2022-09-21T05:44:40.963Z,10.00
2022-09-21T05:47:24.000Z,10.00
2022-09-21T05:50:01.516Z,10.00
2022-09-21T05:52:35.635Z,10.00
2022-09-21T05:55:10.641Z,10.00
2022-09-21T05:57:46.773Z,10.00
2022-09-21T06:00:18.800Z,10.00
2022-09-21T06:03:16.918Z,10.00
2022-09-21T06:05:45.860Z,10.10
2022-09-21T06:08:13.720Z,10.10
2022-09-21T06:10:41.742Z,10.10
2022-09-21T06:13:09.574Z,10.10
2022-09-21T06:15:38.300Z,10.10
2022-09-21T06:18:07.984Z,10.10
2022-09-21T06:20:36.109Z,10.20
2022-09-21T06:23:04.019Z,10.10
2022-09-21T06:25:32.034Z,10.20
2022-09-21T06:28:04.382Z,10.20
2022-09-21T06:30:33.191Z,10.10
2022-09-21T06:33:02.055Z,10.10
2022-09-21T06:35:32.347Z,10.10
2022-09-21T06:38:00.448Z,10.10
2022-09-21T06:40:28.864Z,10.20
2022-09-21T06:42:58.574Z,10.20
2022-09-21T06:45:26.848Z,10.20
2022-09-21T06:47:54.738Z,10.30
2022-09-21T06:50:22.979Z,10.30
2022-09-21T06:52:52.209Z,10.30
2022-09-21T06:55:20.082Z,10.40
2022-09-21T06:57:48.065Z,10.40
2022-09-21T07:00:16.475Z,10.40
2022-09-21T07:02:45.583Z,10.40
2022-09-21T07:05:14.182Z,10.40
2022-09-21T07:07:41.987Z,10.40
2022-09-21T07:10:15.912Z,10.40
2022-09-21T07:12:46.422Z,10.40
2022-09-21T07:15:15.415Z,10.40
2022-09-21T07:17:51.691Z,10.50
2022-09-21T07:20:20.033Z,10.50
2022-09-21T07:22:47.894Z,10.60
2022-09-21T07:25:17.363Z,10.60
2022-09-21T07:27:45.240Z,10.70
2022-09-21T07:30:13.518Z,10.70
2022-09-21T07:32:41.389Z,10.80
2022-09-21T07:35:09.566Z,10.80
2022-09-21T07:37:37.412Z,10.80
2022-09-21T07:40:06.262Z,10.90
2022-09-21T07:42:35.522Z,11.00
2022-09-21T07:45:04.372Z,11.10
2022-09-21T07:47:32.691Z,11.20
2022-09-21T07:50:00.635Z,11.30
2022-09-21T07:52:28.904Z,11.40
2022-09-21T07:54:56.808Z,11.50
2022-09-21T07:57:41.915Z,11.70
2022-09-21T08:00:11.847Z,11.80
2022-09-21T08:02:41.759Z,11.90
2022-09-21T08:05:12.936Z,12.10
2022-09-21T08:07:40.574Z,12.20
2022-09-21T08:10:08.798Z,12.30
2022-09-21T08:12:36.682Z,12.40
2022-09-21T08:15:04.633Z,12.50
2022-09-21T08:17:33.709Z,12.60
2022-09-21T08:20:01.769Z,12.70
2022-09-21T08:22:29.539Z,12.80
2022-09-21T08:24:57.305Z,12.90
2022-09-21T08:27:25.523Z,12.90
2022-09-21T08:29:53.194Z,13.00
2022-09-21T08:32:46.390Z,13.10
2022-09-21T08:35:10.445Z,13.20
2022-09-21T08:37:38.308Z,13.30
2022-09-21T08:40:07.921Z,13.30
2022-09-21T08:42:41.080Z,13.40
2022-09-21T08:45:12.182Z,13.50
2022-09-21T08:47:41.906Z,13.60
2022-09-21T08:50:20.376Z,13.70
2022-09-21T08:52:48.280Z,13.80
2022-09-21T08:55:19.815Z,13.80
2022-09-21T08:57:47.952Z,13.90
2022-09-21T09:00:17.724Z,14.00
2022-09-21T09:03:10.403Z,14.10
2022-09-21T09:05:47.927Z,14.20
2022-09-21T09:08:33.794Z,14.30
2022-09-21T09:11:13.172Z,14.30
2022-09-21T09:14:00.930Z,14.40
2022-09-21T09:16:37.055Z,14.50
2022-09-21T09:19:19.415Z,14.60
2022-09-21T09:21:48.743Z,14.70
2022-09-21T09:24:20.523Z,14.80
2022-09-21T09:26:53.652Z,14.90
2022-09-21T09:29:29.730Z,15.00
2022-09-21T09:32:00.272Z,15.00
2022-09-21T09:34:33.178Z,15.10
2022-09-21T09:37:11.129Z,15.10
2022-09-21T09:39:39.632Z,15.30
2022-09-21T09:42:34.408Z,15.30
2022-09-21T09:45:21.944Z,15.40
2022-09-21T09:48:13.015Z,15.40
2022-09-21T09:50:42.731Z,15.60
2022-09-21T09:53:15.299Z,15.60
2022-09-21T09:55:46.748Z,15.60
2022-09-21T09:58:19.747Z,15.70
2022-09-21T10:00:48.930Z,15.80
2022-09-21T10:03:19.399Z,15.90
2022-09-21T10:05:47.546Z,15.90
2022-09-21T10:08:43.006Z,16.00
2022-09-21T10:11:12.813Z,16.20
2022-09-21T10:13:42.350Z,16.30
2022-09-21T10:16:15.163Z,16.30
2022-09-21T10:18:48.431Z,16.40
2022-09-21T10:21:22.170Z,16.50
2022-09-21T10:23:55.017Z,16.60
2022-09-21T10:26:23.245Z,16.70
2022-09-21T10:28:59.351Z,16.70
2022-09-21T10:31:29.886Z,16.80
2022-09-21T10:34:08.418Z,16.80
2022-09-21T10:36:37.760Z,16.80
2022-09-21T10:39:22.635Z,16.90
2022-09-21T10:41:53.542Z,17.00
2022-09-21T10:44:23.818Z,17.10
2022-09-21T10:46:52.694Z,17.10
2022-09-21T10:49:25.712Z,17.20
2022-09-21T10:51:58.404Z,17.30
2022-09-21T10:54:30.612Z,17.50
2022-09-21T10:57:03.248Z,17.50
2022-09-21T10:59:32.953Z,17.60
2022-09-21T11:02:02.930Z,17.60
2022-09-21T11:04:40.216Z,17.80
2022-09-21T11:07:18.724Z,17.90
2022-09-21T11:09:55.415Z,18.00
2022-09-21T11:12:42.365Z,18.10
2022-09-21T11:15:21.767Z,18.10
2022-09-21T11:17:53.246Z,18.10
2022-09-21T11:20:29.241Z,18.10
2022-09-21T11:23:05.189Z,18.20
2022-09-21T11:25:44.228Z,18.30
2022-09-21T11:28:17.743Z,18.30
2022-09-21T11:31:08.158Z,18.30
2022-09-21T11:33:55.688Z,18.20
2022-09-21T11:36:34.351Z,18.10
2022-09-21T11:39:07.395Z,18.30
2022-09-21T11:42:05.382Z,18.30
2022-09-21T11:44:49.210Z,18.40
2022-09-21T11:47:33.320Z,18.40
2022-09-21T11:50:30.379Z,18.40
2022-09-21T11:53:14.374Z,18.40
2022-09-21T11:56:01.214Z,18.30
2022-09-21T11:58:39.569Z,18.40
2022-09-21T12:01:20.054Z,18.90
2022-09-21T12:04:16.934Z,19.80
2022-09-21T12:06:54.697Z,20.90
2022-09-21T12:09:55.010Z,22.00
2022-09-21T12:12:28.171Z,23.10
2022-09-21T12:15:04.789Z,24.20
2022-09-21T12:17:44.543Z,25.10
2022-09-21T12:20:18.175Z,25.80
2022-09-21T12:22:48.324Z,26.60
2022-09-21T12:25:19.543Z,27.30
2022-09-21T12:27:51.734Z,28.00
2022-09-21T12:30:23.072Z,28.50
2022-09-21T12:32:57.925Z,28.60
2022-09-21T12:35:31.627Z,28.50
2022-09-21T12:38:05.043Z,28.40
2022-09-21T12:40:39.790Z,28.40
2022-09-21T12:43:18.009Z,28.50
2022-09-21T12:45:53.445Z,28.40
2022-09-21T12:48:25.312Z,28.50
2022-09-21T12:50:56.926Z,28.70
2022-09-21T12:53:28.232Z,29.00
2022-09-21T12:56:09.498Z,29.40
2022-09-21T12:59:05.557Z,29.70
2022-09-21T13:01:43.392Z,29.90
2022-09-21T13:04:34.344Z,29.90
2022-09-21T13:07:21.493Z,29.90
2022-09-21T13:09:51.604Z,29.90
2022-09-21T13:12:23.971Z,29.90
2022-09-21T13:14:55.683Z,29.90
2022-09-21T13:17:28.889Z,29.70
2022-09-21T13:19:59.803Z,29.40
2022-09-21T13:22:31.294Z,29.10
2022-09-21T13:25:03.045Z,28.80
2022-09-21T13:28:04.191Z,28.50
2022-09-21T13:30:36.165Z,28.20
2022-09-21T13:33:26.372Z,28.00
2022-09-21T13:36:06.074Z,27.80
2022-09-21T13:38:37.349Z,27.50
2022-09-21T13:41:35.447Z,27.20
2022-09-21T13:44:41.421Z,26.60
2022-09-21T13:47:11.321Z,25.70
2022-09-21T13:49:53.942Z,25.00
2022-09-21T13:52:32.560Z,24.80
2022-09-21T13:55:04.061Z,24.60
2022-09-21T13:57:37.837Z,24.50
2022-09-21T14:00:40.487Z,24.40
2022-09-21T14:03:19.200Z,24.10
2022-09-21T14:05:51.760Z,23.80
2022-09-21T14:08:24.258Z,23.40
2022-09-21T14:10:54.326Z,23.00
2022-09-21T14:13:27.945Z,22.70
2022-09-21T14:16:18.119Z,22.30
2022-09-21T14:18:51.527Z,22.00
2022-09-21T14:21:21.386Z,21.70
2022-09-21T14:24:07.796Z,21.50
2022-09-21T14:26:41.425Z,21.30
2022-09-21T14:29:13.637Z,21.00
2022-09-21T14:31:41.431Z,20.90
2022-09-21T14:34:14.493Z,20.80
2022-09-21T14:36:45.726Z,20.70
2022-09-21T14:39:18.264Z,20.50
2022-09-21T14:41:47.002Z,20.40
2022-09-21T14:44:19.676Z,20.40
2022-09-21T14:47:05.117Z,20.30
2022-09-21T14:49:45.171Z,20.20
2022-09-21T14:52:27.891Z,20.10
2022-09-21T14:55:05.247Z,20.10
2022-09-21T14:57:45.911Z,20.00
2022-09-21T15:00:21.053Z,19.90
2022-09-21T15:02:50.345Z,19.90
2022-09-21T15:05:21.634Z,19.80
2022-09-21T15:08:12.345Z,19.80
2022-09-21T15:10:58.061Z,19.80
2022-09-21T15:13:37.469Z,19.70
2022-09-21T15:16:22.852Z,19.70
2022-09-21T15:18:52.048Z,19.60
2022-09-21T15:21:22.288Z,19.60
2022-09-21T15:23:53.102Z,19.50
2022-09-21T15:26:23.828Z,19.50
2022-09-21T15:29:10.553Z,19.40
2022-09-21T15:31:39.667Z,19.40
2022-09-21T15:34:07.939Z,19.30
2022-09-21T15:36:37.620Z,19.30
2022-09-21T15:39:07.419Z,19.30
2022-09-21T15:41:40.449Z,19.20
2022-09-21T15:44:15.747Z,19.20
2022-09-21T15:46:44.796Z,19.20
2022-09-21T15:49:13.281Z,19.10
2022-09-21T15:51:44.786Z,19.10
2022-09-21T15:54:21.692Z,19.00
2022-09-21T15:56:49.474Z,19.00
2022-09-21T15:59:18.466Z,19.00
2022-09-21T16:01:47.977Z,19.00
2022-09-21T16:04:17.604Z,18.90
2022-09-21T16:06:47.734Z,18.90
2022-09-21T16:09:34.221Z,18.90
2022-09-21T16:12:22.983Z,18.80
2022-09-21T16:14:57.970Z,18.80
2022-09-21T16:17:28.786Z,18.70
2022-09-21T16:20:17.856Z,18.70
2022-09-21T16:22:47.396Z,18.70
2022-09-21T16:25:22.910Z,18.60
2022-09-21T16:27:52.222Z,18.60
2022-09-21T16:30:40.260Z,18.60
2022-09-21T16:33:23.421Z,18.60
2022-09-21T16:35:55.135Z,18.50
2022-09-21T16:38:23.731Z,18.50
2022-09-21T16:40:54.049Z,18.40
2022-09-21T16:43:23.253Z,18.40
2022-09-21T16:45:51.040Z,18.30
2022-09-21T16:48:18.824Z,18.30
2022-09-21T16:50:46.776Z,18.30
2022-09-21T16:53:14.490Z,18.30
2022-09-21T16:55:42.826Z,18.20
2022-09-21T16:58:11.844Z,18.20
2022-09-21T17:00:41.126Z,18.20
2022-09-21T17:03:08.874Z,18.20
2022-09-21T17:05:36.521Z,18.10
2022-09-21T17:08:04.576Z,18.10
2022-09-21T17:10:36.649Z,18.10
2022-09-21T17:13:08.637Z,18.10
2022-09-21T17:15:41.289Z,18.00
2022-09-21T17:18:11.603Z,18.00
2022-09-21T17:20:41.817Z,17.90
2022-09-21T17:23:10.146Z,17.90
2022-09-21T17:25:38.354Z,17.90
2022-09-21T17:28:25.997Z,17.80
2022-09-21T17:30:55.604Z,17.70
2022-09-21T17:33:25.310Z,17.70
2022-09-21T17:35:55.634Z,17.70
2022-09-21T17:38:23.507Z,17.60
2022-09-21T17:40:51.410Z,17.50
2022-09-21T17:43:39.244Z,17.50
2022-09-21T17:46:14.399Z,17.40
2022-09-21T17:48:42.892Z,17.40
2022-09-21T17:51:11.277Z,17.30
2022-09-21T17:53:38.243Z,17.30
2022-09-21T17:56:23.311Z,17.20
2022-09-21T17:58:57.939Z,17.10
2022-09-21T18:01:34.815Z,17.10
2022-09-21T18:04:03.538Z,17.00
2022-09-21T18:06:31.931Z,17.00
2022-09-21T18:09:00.178Z,16.90
2022-09-21T18:11:47.613Z,16.90
2022-09-21T18:14:25.396Z,16.80
2022-09-21T18:17:06.414Z,16.80
2022-09-21T18:19:45.358Z,16.70
2022-09-21T18:22:20.045Z,16.60
2022-09-21T18:24:48.557Z,16.60
2022-09-21T18:27:19.241Z,16.60
2022-09-21T18:29:47.559Z,16.60
2022-09-21T18:32:39.530Z,16.50
2022-09-21T18:35:28.237Z,16.50
2022-09-21T18:38:05.680Z,16.50
2022-09-21T18:40:40.037Z,16.50
2022-09-21T18:43:22.610Z,16.40
2022-09-21T18:46:01.814Z,16.40
2022-09-21T18:48:42.034Z,16.40
2022-09-21T18:51:19.073Z,16.40
2022-09-21T18:53:52.110Z,16.40
2022-09-21T18:56:20.408Z,16.30
2022-09-21T18:58:49.619Z,16.30
2022-09-21T19:01:20.108Z,16.30
2022-09-21T19:03:57.878Z,16.20
2022-09-21T19:06:37.486Z,16.10
2022-09-21T19:09:17.939Z,16.10
2022-09-21T19:11:52.915Z,16.10
2022-09-21T19:14:27.902Z,16.00
2022-09-21T19:17:07.610Z,16.00
2022-09-21T19:19:45.527Z,16.00
2022-09-21T19:22:17.182Z,15.90
2022-09-21T19:24:57.213Z,15.90
2022-09-21T19:27:34.233Z,15.90
2022-09-21T19:30:09.366Z,15.90
2022-09-21T19:32:41.928Z,15.90
2022-09-21T19:35:21.700Z,15.90
2022-09-21T19:37:50.807Z,15.80
2022-09-21T19:40:20.282Z,15.80
2022-09-21T19:43:00.096Z,15.80
2022-09-21T19:45:33.071Z,15.70
2022-09-21T19:48:05.699Z,15.70
2022-09-21T19:50:41.549Z,15.70
2022-09-21T19:53:29.824Z,15.60
2022-09-21T19:56:16.364Z,15.60
2022-09-21T19:59:02.188Z,15.60
2022-09-21T20:01:31.308Z,15.50
2022-09-21T20:03:59.565Z,15.50
2022-09-21T20:06:36.288Z,15.50
2022-09-21T20:09:12.270Z,15.50
2022-09-21T20:11:47.114Z,15.40
2022-09-21T20:14:31.379Z,15.40
2022-09-21T20:17:02.097Z,15.30
2022-09-21T20:19:38.906Z,15.30
2022-09-21T20:22:15.028Z,15.20
2022-09-21T20:24:51.865Z,15.20
2022-09-21T20:27:30.234Z,15.20
2022-09-21T20:29:58.090Z,15.20
2022-09-21T20:32:25.956Z,15.20
2022-09-21T20:34:54.128Z,15.10
2022-09-21T20:37:23.638Z,15.10
2022-09-21T20:39:51.715Z,15.10
2022-09-21T20:42:23.346Z,15.10
2022-09-21T20:44:51.272Z,15.00
2022-09-21T20:47:19.888Z,15.00
2022-09-21T20:49:48.265Z,15.00
2022-09-21T20:52:17.610Z,14.90
2022-09-21T20:54:49.561Z,14.90
2022-09-21T20:57:17.828Z,14.80
2022-09-21T20:59:45.728Z,14.80
2022-09-21T21:02:16.467Z,14.80
2022-09-21T21:04:44.391Z,14.80
2022-09-21T21:07:12.733Z,14.70
2022-09-21T21:09:40.915Z,14.70
2022-09-21T21:12:10.752Z,14.70
2022-09-21T21:14:38.564Z,14.70
2022-09-21T21:17:06.641Z,14.70
2022-09-21T21:19:34.743Z,14.70
2022-09-21T21:22:02.627Z,14.60
2022-09-21T21:24:43.560Z,14.60
2022-09-21T21:27:16.263Z,14.60
2022-09-21T21:29:46.036Z,14.60
2022-09-21T21:32:14.422Z,14.50
2022-09-21T21:34:42.615Z,14.50
2022-09-21T21:37:10.966Z,14.50
2022-09-21T21:39:38.764Z,14.40
2022-09-21T21:42:06.956Z,14.40
2022-09-21T21:44:36.137Z,14.30
2022-09-21T21:47:27.412Z,14.30
2022-09-21T21:49:52.083Z,14.20
2022-09-21T21:52:19.984Z,14.20
2022-09-21T21:54:47.776Z,14.20
2022-09-21T21:57:15.578Z,14.10
2022-09-21T21:59:44.771Z,14.10
2022-09-21T22:02:12.676Z,14.10
2022-09-21T22:04:40.915Z,14.10
2022-09-21T22:07:08.781Z,14.10
2022-09-21T22:09:36.629Z,14.10
2022-09-21T22:12:04.676Z,14.10
2022-09-21T22:14:32.520Z,14.00
2022-09-21T22:17:01.771Z,14.10
2022-09-21T22:19:29.663Z,14.00
2022-09-21T22:21:57.647Z,14.00
2022-09-21T22:24:25.491Z,14.00
2022-09-21T22:26:53.324Z,14.00
2022-09-21T22:29:21.261Z,14.00
2022-09-21T22:31:50.344Z,13.90
2022-09-21T22:34:20.182Z,13.90
2022-09-21T22:36:48.024Z,13.90
2022-09-21T22:39:15.840Z,13.80
2022-09-21T22:41:44.232Z,13.80
2022-09-21T22:44:12.460Z,13.80
2022-09-21T22:46:40.931Z,13.80
2022-09-21T22:49:09.106Z,13.70
2022-09-21T22:51:38.803Z,13.80
2022-09-21T22:54:07.004Z,13.70
2022-09-21T22:56:35.688Z,13.80
2022-09-21T22:59:05.821Z,13.70
2022-09-21T23:01:35.293Z,13.70
2022-09-21T23:04:05.150Z,13.70
2022-09-21T23:06:34.381Z,13.70
2022-09-21T23:09:09.383Z,13.70
2022-09-21T23:11:39.112Z,13.60
2022-09-21T23:14:07.000Z,13.60
2022-09-21T23:16:35.079Z,13.60
2022-09-21T23:19:03.088Z,13.50
2022-09-21T23:21:31.800Z,13.50
2022-09-21T23:24:01.844Z,13.40
2022-09-21T23:26:33.975Z,13.40
2022-09-21T23:29:05.391Z,13.40
2022-09-21T23:31:33.859Z,13.30
2022-09-21T23:34:07.286Z,13.30
2022-09-21T23:36:36.003Z,13.30
2022-09-21T23:39:05.205Z,13.30
2022-09-21T23:41:36.658Z,13.30
2022-09-21T23:44:04.966Z,13.30
2022-09-21T23:46:35.104Z,13.20
2022-09-21T23:49:03.079Z,13.20
2022-09-21T23:51:31.206Z,13.20
2022-09-21T23:53:59.257Z,13.20
2022-09-21T23:56:27.159Z,13.10
2022-09-21T23:58:56.666Z,13.10
